createdAt,value
2023-01-05T00:04:24.465Z,101061.34
2023-01-05T00:09:18.716Z,101123.56
2023-01-05T00:14:33.035Z,101148.63
2023-01-05T00:19:43.135Z,101045.19
2023-01-05T00:24:34.717Z,101090.22
2023-01-05T00:29:26.249Z,101111.44
2023-01-05T00:34:17.887Z,100993.50
2023-01-05T00:39:09.506Z,101158.94
2023-01-05T00:44:01.090Z,101120.53
2023-01-05T00:48:52.770Z,101123.59
2023-01-05T00:53:44.399Z,101118.31
2023-01-05T00:58:36.135Z,101160.97
2023-01-05T01:03:27.708Z,101145.81
2023-01-05T01:08:20.049Z,101038.31
2023-01-05T01:13:11.625Z,101161.38
2023-01-05T01:18:03.199Z,101173.09
2023-01-05T01:22:54.752Z,101164.00
2023-01-05T01:27:46.591Z,101176.72
2023-01-05T01:32:38.320Z,101105.41
2023-01-05T01:37:31.144Z,101163.00
2023-01-05T01:42:23.860Z,101076.91
2023-01-05T01:47:24.618Z,101180.97
2023-01-05T01:52:17.102Z,101127.63
2023-01-05T01:57:11.641Z,101172.28
2023-01-05T02:02:03.406Z,101178.16
2023-01-05T02:06:56.203Z,101143.59
2023-01-05T02:12:12.117Z,101187.84
2023-01-05T02:17:15.844Z,101176.13
2023-01-05T02:22:16.520Z,101179.56
2023-01-05T02:27:24.533Z,101176.53
2023-01-05T02:32:25.667Z,101163.59
2023-01-05T02:37:46.740Z,101141.94
2023-01-05T02:42:41.685Z,101197.53
2023-01-05T02:47:40.004Z,101199.53
2023-01-05T02:52:42.835Z,101124.66
2023-01-05T02:57:47.593Z,101084.78
2023-01-05T03:02:49.398Z,101184.94
2023-01-05T03:07:43.955Z,101201.97
2023-01-05T03:13:13.357Z,101150.78
2023-01-05T03:18:08.492Z,101201.34
2023-01-05T03:23:29.828Z,101208.63
2023-01-05T03:28:44.671Z,101114.59
2023-01-05T03:34:01.945Z,101207.00
2023-01-05T03:38:57.612Z,101210.25
2023-01-05T03:43:52.236Z,101204.75
2023-01-05T03:48:45.076Z,101212.47
2023-01-05T03:53:37.321Z,101177.06
2023-01-05T03:58:28.997Z,101159.47
2023-01-05T04:03:25.049Z,101175.03
2023-01-05T04:08:20.088Z,101187.38
2023-01-05T04:13:12.198Z,101231.47
2023-01-05T04:18:03.813Z,101236.34
2023-01-05T04:22:55.777Z,101104.88
2023-01-05T04:27:48.296Z,101230.28
2023-01-05T04:32:41.941Z,101213.28
2023-01-05T04:37:39.450Z,101187.59
2023-01-05T04:42:31.681Z,101193.44
2023-01-05T04:47:23.355Z,101228.03
2023-01-05T04:52:16.279Z,101197.06
2023-01-05T04:57:09.513Z,101144.28
2023-01-05T05:02:03.349Z,101202.31
2023-01-05T05:06:57.380Z,101244.78
2023-01-05T05:11:51.324Z,101189.50
2023-01-05T05:16:46.707Z,101227.09
2023-01-05T05:21:39.131Z,101157.59
2023-01-05T05:26:30.843Z,101243.66
2023-01-05T05:31:24.263Z,101244.28
2023-01-05T05:36:17.843Z,101247.09
2023-01-05T05:41:10.991Z,101259.84
2023-01-05T05:46:02.985Z,101265.72
2023-01-05T05:50:55.320Z,101269.75
2023-01-05T05:55:51.010Z,101279.06
2023-01-05T06:00:42.555Z,101277.66
2023-01-05T06:05:34.122Z,101226.66
2023-01-05T06:10:25.725Z,101288.34
2023-01-05T06:15:17.460Z,101233.03
2023-01-05T06:20:09.942Z,101243.16
2023-01-05T06:25:01.505Z,101309.34
2023-01-05T06:29:53.334Z,101267.00
2023-01-05T06:34:44.904Z,101287.69
2023-01-05T06:39:36.475Z,101317.84
2023-01-05T06:44:28.167Z,101318.44
2023-01-05T06:49:19.775Z,101325.91
2023-01-05T06:54:11.432Z,101336.41
2023-01-05T06:59:03.064Z,101330.75
2023-01-05T07:03:54.781Z,101340.47
2023-01-05T07:08:46.438Z,101347.91
2023-01-05T07:13:37.995Z,101197.19
2023-01-05T07:18:29.621Z,101351.16
2023-01-05T07:23:21.261Z,101353.38
2023-01-05T07:28:12.979Z,101276.44
2023-01-05T07:33:05.235Z,101366.13
2023-01-05T07:37:57.253Z,101376.63
2023-01-05T07:42:53.405Z,101367.09
2023-01-05T07:47:46.031Z,101327.56
2023-01-05T07:52:39.073Z,101330.94
2023-01-05T07:57:31.555Z,101404.09
2023-01-05T08:02:23.340Z,101382.66
2023-01-05T08:07:15.737Z,101404.13
2023-01-05T08:12:07.565Z,101412.44
2023-01-05T08:16:59.192Z,101295.50
2023-01-05T08:21:50.779Z,101301.78
2023-01-05T08:26:42.413Z,101348.19
2023-01-05T08:31:37.483Z,101426.28
2023-01-05T08:36:31.482Z,101418.38
2023-01-05T08:41:28.418Z,101314.88
2023-01-05T08:46:22.630Z,101434.03
2023-01-05T08:51:14.473Z,101442.41
2023-01-05T08:56:06.435Z,101438.97
2023-01-05T09:00:58.165Z,101392.59
2023-01-05T09:05:55.198Z,101453.59
2023-01-05T09:10:46.816Z,101454.81
2023-01-05T09:15:38.625Z,101435.41
2023-01-05T09:20:33.215Z,101342.13
2023-01-05T09:25:29.446Z,101309.47
2023-01-05T09:30:21.133Z,101476.03
2023-01-05T09:35:13.741Z,101381.25
2023-01-05T09:40:05.976Z,101474.63
2023-01-05T09:45:03.205Z,101412.06
2023-01-05T09:49:58.050Z,101467.13
2023-01-05T09:54:49.650Z,101481.53
2023-01-05T09:59:45.115Z,101483.34
2023-01-05T10:04:36.870Z,101506.84
2023-01-05T10:09:33.246Z,101498.94
2023-01-05T10:14:32.265Z,101528.09
2023-01-05T10:19:23.936Z,101529.53
2023-01-05T10:24:31.777Z,101527.69
2023-01-05T10:29:31.274Z,101436.56
2023-01-05T10:34:41.950Z,101531.09
2023-01-05T10:40:01.956Z,101409.00
2023-01-05T10:44:59.685Z,101519.31
2023-01-05T10:49:51.651Z,101551.31
2023-01-05T10:54:44.345Z,101544.09
2023-01-05T10:59:54.727Z,101535.34
2023-01-05T11:04:48.584Z,101523.78
2023-01-05T11:09:41.598Z,101530.25
2023-01-05T11:14:40.772Z,101543.16
2023-01-05T11:19:37.113Z,101549.56
2023-01-05T11:24:34.526Z,101556.06
2023-01-05T11:29:26.151Z,101458.31
2023-01-05T11:34:42.467Z,101478.38
2023-01-05T11:39:47.665Z,101555.72
2023-01-05T11:44:47.679Z,101476.94
2023-01-05T11:49:39.481Z,101529.31
2023-01-05T11:54:38.126Z,101492.50
2023-01-05T11:59:30.115Z,101551.47
2023-01-05T12:04:27.934Z,101555.91
2023-01-05T12:09:35.292Z,101551.78
2023-01-05T12:14:39.531Z,101557.31
2023-01-05T12:19:49.220Z,101545.84
2023-01-05T12:25:01.693Z,101534.41
2023-01-05T12:35:37.228Z,101535.34
2023-01-05T12:40:46.205Z,101519.41
2023-01-05T12:46:08.363Z,101464.03
2023-01-05T12:51:16.524Z,101543.09
2023-01-05T12:56:23.525Z,101546.34
2023-01-05T13:01:23.696Z,101375.56
2023-01-05T13:06:20.197Z,101401.28
2023-01-05T13:11:18.051Z,101546.78
2023-01-05T13:16:30.326Z,101541.25
2023-01-05T13:21:24.038Z,101548.41
2023-01-05T13:26:18.698Z,101541.56
2023-01-05T13:31:56.483Z,101446.75
2023-01-05T13:37:25.888Z,101552.50
2023-01-05T13:42:42.561Z,101551.53
2023-01-05T13:48:13.056Z,101547.94
2023-01-05T13:53:12.128Z,101509.47
2023-01-05T13:58:24.706Z,101547.78
2023-01-05T14:03:33.054Z,101557.50
2023-01-05T14:08:32.327Z,101553.84
2023-01-05T14:13:42.011Z,101561.94
2023-01-05T14:18:51.052Z,101566.81
2023-01-05T14:23:42.602Z,101570.47
2023-01-05T14:28:34.445Z,101559.72
2023-01-05T14:33:26.337Z,101566.00
2023-01-05T14:38:23.176Z,101555.25
2023-01-05T14:43:29.937Z,101530.53
2023-01-05T14:48:30.364Z,101573.50
2023-01-05T14:53:44.213Z,101455.88
2023-01-05T14:58:35.784Z,101590.72
2023-01-05T15:03:38.952Z,101583.81
2023-01-05T15:08:53.898Z,101505.50
2023-01-05T15:14:37.761Z,101520.91
2023-01-05T15:19:40.739Z,101499.38
2023-01-05T15:25:07.605Z,101591.19
2023-01-05T15:30:02.301Z,101574.13
2023-01-05T15:35:20.549Z,101586.03
2023-01-05T15:40:21.406Z,101582.56
2023-01-05T15:45:31.742Z,101577.31
2023-01-05T15:50:27.615Z,101570.38
2023-01-05T15:55:19.525Z,101540.50
2023-01-05T16:00:22.855Z,101499.66
2023-01-05T16:05:24.749Z,101577.72
2023-01-05T16:10:19.079Z,101588.59
2023-01-05T16:15:15.892Z,101586.25
2023-01-05T16:20:18.679Z,101448.00
2023-01-05T16:25:31.115Z,101584.63
2023-01-05T16:30:31.540Z,101584.66
2023-01-05T16:35:47.298Z,101583.41
2023-01-05T16:40:48.072Z,101588.22
2023-01-05T16:45:39.657Z,101585.22
2023-01-05T16:50:37.136Z,101586.03
2023-01-05T16:55:30.034Z,101575.22
2023-01-05T17:00:30.882Z,101572.72
2023-01-05T17:05:29.058Z,101552.97
2023-01-05T17:10:25.609Z,101565.19
2023-01-05T17:15:22.248Z,101570.63
2023-01-05T17:20:14.415Z,101412.25
2023-01-05T17:25:09.904Z,101560.72
2023-01-05T17:30:02.989Z,101559.47
2023-01-05T17:34:54.541Z,101476.97
2023-01-05T17:39:46.886Z,101555.53
2023-01-05T17:44:38.433Z,101540.41
2023-01-05T17:49:32.828Z,101495.78
2023-01-05T17:54:24.424Z,101494.81
2023-01-05T17:59:15.979Z,101481.72
2023-01-05T18:04:07.568Z,101406.81
2023-01-05T18:08:59.155Z,101469.09
2023-01-05T18:13:50.827Z,101534.09
2023-01-05T18:18:42.513Z,101529.84
2023-01-05T18:23:34.383Z,101475.94
2023-01-05T18:28:25.991Z,101531.75
2023-01-05T18:33:17.628Z,101521.25
2023-01-05T18:38:09.536Z,101527.31
2023-01-05T18:43:01.104Z,101520.34
2023-01-05T18:47:56.668Z,101458.53
2023-01-05T18:52:48.624Z,101512.13
2023-01-05T18:57:40.289Z,101514.75
2023-01-05T19:02:32.120Z,101508.75
2023-01-05T19:07:23.850Z,101477.59
2023-01-05T19:12:15.497Z,101431.00
2023-01-05T19:17:07.216Z,101428.06
2023-01-05T19:21:58.862Z,101485.97
2023-01-05T19:26:51.110Z,101513.84
2023-01-05T19:31:43.860Z,101497.72
2023-01-05T19:36:36.186Z,101391.53
2023-01-05T19:41:28.626Z,101503.69
2023-01-05T19:46:22.221Z,101455.63
2023-01-05T19:51:16.552Z,101496.81
2023-01-05T19:56:14.291Z,101492.00
2023-01-05T20:01:14.511Z,101485.56
2023-01-05T20:06:21.722Z,101492.69
2023-01-05T20:11:13.954Z,101493.13
2023-01-05T20:16:11.385Z,101491.94
2023-01-05T20:21:05.116Z,101496.44
2023-01-05T20:26:08.941Z,101430.06
2023-01-05T20:31:00.600Z,101428.47
2023-01-05T20:35:52.318Z,101418.78
2023-01-05T20:40:43.951Z,101475.06
2023-01-05T20:45:35.657Z,101484.84
2023-01-05T20:50:27.524Z,101415.41
2023-01-05T20:55:19.971Z,101491.91
2023-01-05T21:00:14.269Z,101440.38
2023-01-05T21:05:06.479Z,101448.38
2023-01-05T21:09:58.933Z,101475.81
2023-01-05T21:14:50.659Z,101475.38
2023-01-05T21:19:42.248Z,101479.88
2023-01-05T21:24:33.920Z,101481.88
2023-01-05T21:29:26.345Z,101478.88
2023-01-05T21:34:18.369Z,101460.72
2023-01-05T21:39:17.310Z,101476.97
2023-01-05T21:44:10.952Z,101463.53
2023-01-05T21:49:03.162Z,101402.66
2023-01-05T21:54:13.361Z,101448.09
2023-01-05T21:59:08.779Z,101410.28
2023-01-05T22:04:00.458Z,101403.59
2023-01-05T22:08:52.370Z,101391.72
2023-01-05T22:13:43.966Z,101368.81
2023-01-05T22:18:35.656Z,101420.56
2023-01-05T22:23:29.323Z,101431.13
2023-01-05T22:28:21.044Z,101380.44
2023-01-05T22:33:12.756Z,101330.72
2023-01-05T22:38:04.357Z,101440.63
2023-01-05T22:42:55.923Z,101361.97
2023-01-05T22:47:47.586Z,101458.47
2023-01-05T22:52:39.270Z,101434.94
2023-01-05T22:57:30.898Z,101441.69
2023-01-05T23:02:23.771Z,101449.44
2023-01-05T23:07:17.341Z,101440.50
2023-01-05T23:12:09.621Z,101450.09
2023-01-05T23:17:02.249Z,101464.16
2023-01-05T23:21:53.796Z,101409.63
2023-01-05T23:26:45.367Z,101432.16
2023-01-05T23:31:36.932Z,101416.06
2023-01-05T23:36:28.558Z,101399.41
2023-01-05T23:41:20.417Z,101432.91
2023-01-05T23:46:19.962Z,101382.50
2023-01-05T23:51:14.120Z,101424.63
2023-01-05T23:56:12.661Z,101397.09
